sensor_id;sensor_type;location;lat;lon;timestamp;P1;durP1;ratioP1;P2;durP2;ratioP2
38332;SDS011;25748;46.670;14.272;2023-04-15T00:01:23;7.45;;;6.95;;
38332;SDS011;25748;46.670;14.272;2023-04-15T00:03:50;8.30;;;7.78;;
38332;SDS011;25748;46.670;14.272;2023-04-15T00:06:21;8.02;;;7.38;;
38332;SDS011;25748;46.670;14.272;2023-04-15T00:08:47;7.70;;;7.03;;
38332;SDS011;25748;46.670;14.272;2023-04-15T00:11:14;7.30;;;6.70;;
38332;SDS011;25748;46.670;14.272;2023-04-15T00:13:41;7.53;;;6.90;;
38332;SDS011;25748;46.670;14.272;2023-04-15T00:16:07;7.72;;;7.05;;
38332;SDS011;25748;46.670;14.272;2023-04-15T00:18:34;7.45;;;6.88;;
38332;SDS011;25748;46.670;14.272;2023-04-15T00:21:01;8.52;;;7.85;;
38332;SDS011;25748;46.670;14.272;2023-04-15T00:23:27;7.80;;;7.20;;
38332;SDS011;25748;46.670;14.272;2023-04-15T00:25:53;9.45;;;6.97;;
38332;SDS011;25748;46.670;14.272;2023-04-15T00:28:19;7.25;;;6.65;;
38332;SDS011;25748;46.670;14.272;2023-04-15T00:30:45;7.45;;;6.85;;
38332;SDS011;25748;46.670;14.272;2023-04-15T00:33:11;7.00;;;6.50;;
38332;SDS011;25748;46.670;14.272;2023-04-15T00:35:37;6.95;;;6.25;;
38332;SDS011;25748;46.670;14.272;2023-04-15T00:38:04;7.68;;;7.07;;
38332;SDS011;25748;46.670;14.272;2023-04-15T00:40:30;7.30;;;6.70;;
38332;SDS011;25748;46.670;14.272;2023-04-15T00:42:56;7.00;;;6.43;;
38332;SDS011;25748;46.670;14.272;2023-04-15T00:45:22;6.57;;;6.07;;
38332;SDS011;25748;46.670;14.272;2023-04-15T00:47:48;6.57;;;5.97;;
38332;SDS011;25748;46.670;14.272;2023-04-15T00:50:15;6.88;;;6.28;;
38332;SDS011;25748;46.670;14.272;2023-04-15T00:52:40;8.13;;;7.32;;
38332;SDS011;25748;46.670;14.272;2023-04-15T00:55:06;7.60;;;7.07;;
38332;SDS011;25748;46.670;14.272;2023-04-15T00:57:32;6.57;;;6.03;;
38332;SDS011;25748;46.670;14.272;2023-04-15T00:59:59;6.93;;;6.43;;
38332;SDS011;25748;46.670;14.272;2023-04-15T01:02:25;9.27;;;6.55;;
38332;SDS011;25748;46.670;14.272;2023-04-15T01:04:52;7.70;;;7.10;;
38332;SDS011;25748;46.670;14.272;2023-04-15T01:07:17;7.70;;;7.05;;
38332;SDS011;25748;46.670;14.272;2023-04-15T01:09:43;6.57;;;6.10;;
38332;SDS011;25748;46.670;14.272;2023-04-15T01:12:10;8.45;;;6.65;;
38332;SDS011;25748;46.670;14.272;2023-04-15T01:14:38;9.00;;;7.18;;
38332;SDS011;25748;46.670;14.272;2023-04-15T01:17:04;7.50;;;6.72;;
38332;SDS011;25748;46.670;14.272;2023-04-15T01:19:29;7.38;;;6.88;;
38332;SDS011;25748;46.670;14.272;2023-04-15T01:21:55;6.70;;;6.22;;
38332;SDS011;25748;46.670;14.272;2023-04-15T01:24:21;7.80;;;7.20;;
38332;SDS011;25748;46.670;14.272;2023-04-15T01:26:48;6.72;;;6.15;;
38332;SDS011;25748;46.670;14.272;2023-04-15T01:29:14;8.85;;;6.38;;
38332;SDS011;25748;46.670;14.272;2023-04-15T01:31:40;7.90;;;7.10;;
38332;SDS011;25748;46.670;14.272;2023-04-15T01:34:13;7.43;;;6.82;;
38332;SDS011;25748;46.670;14.272;2023-04-15T01:36:39;8.57;;;7.88;;
38332;SDS011;25748;46.670;14.272;2023-04-15T01:39:05;7.07;;;6.40;;
38332;SDS011;25748;46.670;14.272;2023-04-15T01:41:31;11.77;;;7.72;;
38332;SDS011;25748;46.670;14.272;2023-04-15T01:43:57;8.10;;;7.50;;
38332;SDS011;25748;46.670;14.272;2023-04-15T01:46:22;8.38;;;7.63;;
38332;SDS011;25748;46.670;14.272;2023-04-15T01:48:48;7.97;;;7.38;;
38332;SDS011;25748;46.670;14.272;2023-04-15T01:51:14;9.82;;;7.78;;
38332;SDS011;25748;46.670;14.272;2023-04-15T01:53:42;8.68;;;7.82;;
38332;SDS011;25748;46.670;14.272;2023-04-15T01:56:08;8.32;;;7.53;;
38332;SDS011;25748;46.670;14.272;2023-04-15T01:58:34;10.70;;;9.70;;
38332;SDS011;25748;46.670;14.272;2023-04-15T02:00:59;8.82;;;8.02;;
38332;SDS011;25748;46.670;14.272;2023-04-15T02:03:27;9.40;;;8.65;;
38332;SDS011;25748;46.670;14.272;2023-04-15T02:05:53;8.68;;;7.97;;
38332;SDS011;25748;46.670;14.272;2023-04-15T02:08:19;8.98;;;8.07;;
38332;SDS011;25748;46.670;14.272;2023-04-15T02:10:44;8.85;;;8.15;;
38332;SDS011;25748;46.670;14.272;2023-04-15T02:13:10;10.10;;;9.05;;
38332;SDS011;25748;46.670;14.272;2023-04-15T02:15:36;10.27;;;9.10;;
38332;SDS011;25748;46.670;14.272;2023-04-15T02:18:02;9.55;;;8.63;;
38332;SDS011;25748;46.670;14.272;2023-04-15T02:20:28;9.30;;;8.50;;
38332;SDS011;25748;46.670;14.272;2023-04-15T02:22:55;9.77;;;8.82;;
38332;SDS011;25748;46.670;14.272;2023-04-15T02:25:21;9.80;;;8.77;;
38332;SDS011;25748;46.670;14.272;2023-04-15T02:27:46;10.63;;;8.73;;
38332;SDS011;25748;46.670;14.272;2023-04-15T02:30:12;9.65;;;8.75;;
38332;SDS011;25748;46.670;14.272;2023-04-15T02:32:41;10.38;;;9.43;;
38332;SDS011;25748;46.670;14.272;2023-04-15T02:35:09;9.52;;;8.73;;
38332;SDS011;25748;46.670;14.272;2023-04-15T02:37:36;8.93;;;8.13;;
38332;SDS011;25748;46.670;14.272;2023-04-15T02:40:07;9.48;;;8.52;;
38332;SDS011;25748;46.670;14.272;2023-04-15T02:42:40;9.35;;;8.45;;
38332;SDS011;25748;46.670;14.272;2023-04-15T02:45:06;10.35;;;9.35;;
38332;SDS011;25748;46.670;14.272;2023-04-15T02:47:33;10.13;;;9.02;;
38332;SDS011;25748;46.670;14.272;2023-04-15T02:50:00;7.95;;;7.32;;
38332;SDS011;25748;46.670;14.272;2023-04-15T02:52:27;9.90;;;9.02;;
38332;SDS011;25748;46.670;14.272;2023-04-15T02:54:53;9.23;;;8.43;;
38332;SDS011;25748;46.670;14.272;2023-04-15T02:57:25;10.70;;;9.60;;
38332;SDS011;25748;46.670;14.272;2023-04-15T02:59:52;10.65;;;9.60;;
38332;SDS011;25748;46.670;14.272;2023-04-15T03:02:18;10.43;;;8.07;;
38332;SDS011;25748;46.670;14.272;2023-04-15T03:04:44;9.00;;;8.20;;
38332;SDS011;25748;46.670;14.272;2023-04-15T03:07:10;10.77;;;9.57;;
38332;SDS011;25748;46.670;14.272;2023-04-15T03:09:35;10.80;;;9.70;;
38332;SDS011;25748;46.670;14.272;2023-04-15T03:12:01;9.27;;;8.40;;
38332;SDS011;25748;46.670;14.272;2023-04-15T03:14:27;8.85;;;7.75;;
38332;SDS011;25748;46.670;14.272;2023-04-15T03:16:52;9.38;;;8.55;;
38332;SDS011;25748;46.670;14.272;2023-04-15T03:19:18;9.27;;;8.60;;
38332;SDS011;25748;46.670;14.272;2023-04-15T03:21:44;11.05;;;9.90;;
38332;SDS011;25748;46.670;14.272;2023-04-15T03:24:10;9.18;;;7.90;;
38332;SDS011;25748;46.670;14.272;2023-04-15T03:26:36;9.70;;;8.82;;
38332;SDS011;25748;46.670;14.272;2023-04-15T03:29:01;8.45;;;7.63;;
38332;SDS011;25748;46.670;14.272;2023-04-15T03:31:27;11.77;;;9.52;;
38332;SDS011;25748;46.670;14.272;2023-04-15T03:33:53;9.02;;;8.10;;
38332;SDS011;25748;46.670;14.272;2023-04-15T03:36:18;8.30;;;7.55;;
38332;SDS011;25748;46.670;14.272;2023-04-15T03:38:44;9.10;;;8.40;;
38332;SDS011;25748;46.670;14.272;2023-04-15T03:41:10;8.40;;;7.35;;
38332;SDS011;25748;46.670;14.272;2023-04-15T03:43:36;8.50;;;7.68;;
38332;SDS011;25748;46.670;14.272;2023-04-15T03:46:01;8.13;;;6.90;;
38332;SDS011;25748;46.670;14.272;2023-04-15T03:48:27;8.63;;;7.82;;
38332;SDS011;25748;46.670;14.272;2023-04-15T03:50:53;11.73;;;8.30;;
38332;SDS011;25748;46.670;14.272;2023-04-15T03:53:19;8.57;;;7.88;;
38332;SDS011;25748;46.670;14.272;2023-04-15T03:55:45;7.82;;;7.03;;
38332;SDS011;25748;46.670;14.272;2023-04-15T03:58:11;8.13;;;7.45;;
38332;SDS011;25748;46.670;14.272;2023-04-15T04:00:38;8.73;;;7.80;;
38332;SDS011;25748;46.670;14.272;2023-04-15T04:03:04;11.38;;;6.93;;
38332;SDS011;25748;46.670;14.272;2023-04-15T04:05:30;7.82;;;7.07;;
38332;SDS011;25748;46.670;14.272;2023-04-15T04:07:56;7.35;;;6.60;;
38332;SDS011;25748;46.670;14.272;2023-04-15T04:10:21;8.65;;;7.95;;
38332;SDS011;25748;46.670;14.272;2023-04-15T04:12:47;8.73;;;7.88;;
38332;SDS011;25748;46.670;14.272;2023-04-15T04:15:12;8.48;;;7.65;;
38332;SDS011;25748;46.670;14.272;2023-04-15T04:17:38;9.32;;;8.55;;
38332;SDS011;25748;46.670;14.272;2023-04-15T04:20:04;7.93;;;7.20;;
38332;SDS011;25748;46.670;14.272;2023-04-15T04:22:35;8.20;;;7.05;;
38332;SDS011;25748;46.670;14.272;2023-04-15T04:25:04;8.70;;;7.80;;
38332;SDS011;25748;46.670;14.272;2023-04-15T04:27:32;7.35;;;6.70;;
38332;SDS011;25748;46.670;14.272;2023-04-15T04:29:58;7.80;;;7.18;;
38332;SDS011;25748;46.670;14.272;2023-04-15T04:32:24;8.80;;;7.90;;
38332;SDS011;25748;46.670;14.272;2023-04-15T04:34:50;8.02;;;7.30;;
38332;SDS011;25748;46.670;14.272;2023-04-15T04:37:15;10.10;;;8.25;;
38332;SDS011;25748;46.670;14.272;2023-04-15T04:39:41;8.85;;;7.95;;
38332;SDS011;25748;46.670;14.272;2023-04-15T04:42:07;8.55;;;7.85;;
38332;SDS011;25748;46.670;14.272;2023-04-15T04:44:32;10.02;;;7.55;;
38332;SDS011;25748;46.670;14.272;2023-04-15T04:46:58;7.47;;;6.78;;
38332;SDS011;25748;46.670;14.272;2023-04-15T04:49:24;9.80;;;8.93;;
38332;SDS011;25748;46.670;14.272;2023-04-15T04:51:50;9.13;;;8.23;;
38332;SDS011;25748;46.670;14.272;2023-04-15T04:54:16;8.52;;;7.18;;
38332;SDS011;25748;46.670;14.272;2023-04-15T04:56:42;9.00;;;8.20;;
38332;SDS011;25748;46.670;14.272;2023-04-15T04:59:07;8.93;;;8.13;;
38332;SDS011;25748;46.670;14.272;2023-04-15T05:01:33;7.70;;;7.00;;
38332;SDS011;25748;46.670;14.272;2023-04-15T05:03:59;9.45;;;7.53;;
38332;SDS011;25748;46.670;14.272;2023-04-15T05:06:25;8.15;;;7.53;;
38332;SDS011;25748;46.670;14.272;2023-04-15T05:08:51;8.55;;;7.82;;
38332;SDS011;25748;46.670;14.272;2023-04-15T05:11:17;8.63;;;7.88;;
38332;SDS011;25748;46.670;14.272;2023-04-15T05:13:43;8.18;;;7.45;;
38332;SDS011;25748;46.670;14.272;2023-04-15T05:16:08;10.48;;;7.55;;
38332;SDS011;25748;46.670;14.272;2023-04-15T05:18:34;7.50;;;6.80;;
38332;SDS011;25748;46.670;14.272;2023-04-15T05:21:00;10.55;;;7.75;;
38332;SDS011;25748;46.670;14.272;2023-04-15T05:23:26;7.50;;;6.90;;
38332;SDS011;25748;46.670;14.272;2023-04-15T05:25:52;9.15;;;8.35;;
38332;SDS011;25748;46.670;14.272;2023-04-15T05:28:18;8.57;;;7.88;;
38332;SDS011;25748;46.670;14.272;2023-04-15T05:30:43;8.52;;;7.88;;
38332;SDS011;25748;46.670;14.272;2023-04-15T05:33:09;8.80;;;8.10;;
38332;SDS011;25748;46.670;14.272;2023-04-15T05:35:35;7.93;;;7.13;;
38332;SDS011;25748;46.670;14.272;2023-04-15T05:38:01;7.75;;;6.68;;
38332;SDS011;25748;46.670;14.272;2023-04-15T05:40:29;7.95;;;6.97;;
38332;SDS011;25748;46.670;14.272;2023-04-15T05:42:55;8.05;;;7.13;;
38332;SDS011;25748;46.670;14.272;2023-04-15T05:45:21;10.57;;;7.55;;
38332;SDS011;25748;46.670;14.272;2023-04-15T05:47:46;8.50;;;7.68;;
38332;SDS011;25748;46.670;14.272;2023-04-15T05:50:14;10.13;;;9.10;;
38332;SDS011;25748;46.670;14.272;2023-04-15T05:52:40;9.30;;;8.38;;
38332;SDS011;25748;46.670;14.272;2023-04-15T05:55:06;10.85;;;8.05;;
38332;SDS011;25748;46.670;14.272;2023-04-15T05:57:32;8.77;;;7.35;;
38332;SDS011;25748;46.670;14.272;2023-04-15T05:59:58;8.00;;;7.20;;
38332;SDS011;25748;46.670;14.272;2023-04-15T06:02:24;7.60;;;6.22;;
38332;SDS011;25748;46.670;14.272;2023-04-15T06:04:50;9.13;;;6.82;;
38332;SDS011;25748;46.670;14.272;2023-04-15T06:07:16;8.00;;;7.30;;
38332;SDS011;25748;46.670;14.272;2023-04-15T06:09:41;8.82;;;7.93;;
38332;SDS011;25748;46.670;14.272;2023-04-15T06:12:08;7.57;;;6.88;;
38332;SDS011;25748;46.670;14.272;2023-04-15T06:14:36;6.57;;;6.05;;
38332;SDS011;25748;46.670;14.272;2023-04-15T06:17:03;8.55;;;7.78;;
38332;SDS011;25748;46.670;14.272;2023-04-15T06:19:28;7.72;;;7.00;;
38332;SDS011;25748;46.670;14.272;2023-04-15T06:21:54;7.97;;;7.35;;
38332;SDS011;25748;46.670;14.272;2023-04-15T06:24:20;8.02;;;7.30;;
38332;SDS011;25748;46.670;14.272;2023-04-15T06:26:45;8.05;;;7.25;;
38332;SDS011;25748;46.670;14.272;2023-04-15T06:29:11;13.20;;;6.53;;
38332;SDS011;25748;46.670;14.272;2023-04-15T06:31:37;11.73;;;7.35;;
38332;SDS011;25748;46.670;14.272;2023-04-15T06:34:03;7.22;;;6.63;;
38332;SDS011;25748;46.670;14.272;2023-04-15T06:36:28;6.97;;;6.57;;
38332;SDS011;25748;46.670;14.272;2023-04-15T06:38:54;7.78;;;7.07;;
38332;SDS011;25748;46.670;14.272;2023-04-15T06:41:21;8.85;;;7.43;;
38332;SDS011;25748;46.670;14.272;2023-04-15T06:43:46;9.30;;;8.55;;
38332;SDS011;25748;46.670;14.272;2023-04-15T06:46:12;9.02;;;8.32;;
38332;SDS011;25748;46.670;14.272;2023-04-15T06:48:39;7.47;;;6.78;;
38332;SDS011;25748;46.670;14.272;2023-04-15T06:51:05;9.75;;;8.00;;
38332;SDS011;25748;46.670;14.272;2023-04-15T06:53:31;8.85;;;8.10;;
38332;SDS011;25748;46.670;14.272;2023-04-15T06:55:57;7.82;;;7.18;;
38332;SDS011;25748;46.670;14.272;2023-04-15T06:58:22;8.10;;;7.50;;
38332;SDS011;25748;46.670;14.272;2023-04-15T07:00:48;8.82;;;8.00;;
38332;SDS011;25748;46.670;14.272;2023-04-15T07:03:14;8.32;;;7.63;;
38332;SDS011;25748;46.670;14.272;2023-04-15T07:05:40;8.38;;;7.57;;
38332;SDS011;25748;46.670;14.272;2023-04-15T07:08:06;7.07;;;6.47;;
38332;SDS011;25748;46.670;14.272;2023-04-15T07:10:32;7.50;;;6.90;;
38332;SDS011;25748;46.670;14.272;2023-04-15T07:12:58;6.90;;;6.40;;
38332;SDS011;25748;46.670;14.272;2023-04-15T07:15:25;7.05;;;6.60;;
38332;SDS011;25748;46.670;14.272;2023-04-15T07:17:50;6.30;;;5.90;;
38332;SDS011;25748;46.670;14.272;2023-04-15T07:20:16;7.40;;;6.68;;
38332;SDS011;25748;46.670;14.272;2023-04-15T07:22:42;6.80;;;6.32;;
38332;SDS011;25748;46.670;14.272;2023-04-15T07:25:08;6.25;;;5.75;;
38332;SDS011;25748;46.670;14.272;2023-04-15T07:27:33;6.20;;;5.90;;
38332;SDS011;25748;46.670;14.272;2023-04-15T07:30:00;6.28;;;5.97;;
38332;SDS011;25748;46.670;14.272;2023-04-15T07:32:26;7.95;;;7.25;;
38332;SDS011;25748;46.670;14.272;2023-04-15T07:34:51;9.30;;;8.45;;
38332;SDS011;25748;46.670;14.272;2023-04-15T07:37:17;7.97;;;7.38;;
38332;SDS011;25748;46.670;14.272;2023-04-15T07:39:43;8.70;;;7.80;;
38332;SDS011;25748;46.670;14.272;2023-04-15T07:42:09;9.23;;;8.35;;
38332;SDS011;25748;46.670;14.272;2023-04-15T07:44:35;9.25;;;8.35;;
38332;SDS011;25748;46.670;14.272;2023-04-15T07:47:01;7.75;;;6.55;;
38332;SDS011;25748;46.670;14.272;2023-04-15T07:49:28;7.97;;;6.28;;
38332;SDS011;25748;46.670;14.272;2023-04-15T07:51:53;12.88;;;7.50;;
38332;SDS011;25748;46.670;14.272;2023-04-15T07:54:21;8.95;;;7.00;;
38332;SDS011;25748;46.670;14.272;2023-04-15T07:56:47;8.73;;;6.85;;
38332;SDS011;25748;46.670;14.272;2023-04-15T07:59:13;13.32;;;6.18;;
38332;SDS011;25748;46.670;14.272;2023-04-15T08:01:41;7.45;;;6.65;;
38332;SDS011;25748;46.670;14.272;2023-04-15T08:04:07;8.38;;;6.65;;
38332;SDS011;25748;46.670;14.272;2023-04-15T08:06:34;10.57;;;8.10;;
38332;SDS011;25748;46.670;14.272;2023-04-15T08:09:00;8.05;;;6.38;;
38332;SDS011;25748;46.670;14.272;2023-04-15T08:11:26;8.05;;;6.18;;
38332;SDS011;25748;46.670;14.272;2023-04-15T08:13:52;6.50;;;5.68;;
38332;SDS011;25748;46.670;14.272;2023-04-15T08:16:21;7.30;;;6.60;;
38332;SDS011;25748;46.670;14.272;2023-04-15T08:18:49;7.03;;;5.73;;
38332;SDS011;25748;46.670;14.272;2023-04-15T08:21:16;7.50;;;5.43;;
38332;SDS011;25748;46.670;14.272;2023-04-15T08:23:43;7.75;;;7.05;;
38332;SDS011;25748;46.670;14.272;2023-04-15T08:26:10;7.35;;;6.45;;
38332;SDS011;25748;46.670;14.272;2023-04-15T08:28:37;8.02;;;7.00;;
38332;SDS011;25748;46.670;14.272;2023-04-15T08:31:03;10.07;;;5.25;;
38332;SDS011;25748;46.670;14.272;2023-04-15T08:33:29;6.32;;;4.57;;
38332;SDS011;25748;46.670;14.272;2023-04-15T08:35:55;8.73;;;5.50;;
38332;SDS011;25748;46.670;14.272;2023-04-15T08:38:21;14.15;;;4.95;;
38332;SDS011;25748;46.670;14.272;2023-04-15T08:40:47;5.40;;;4.85;;
38332;SDS011;25748;46.670;14.272;2023-04-15T08:43:23;6.50;;;5.82;;
38332;SDS011;25748;46.670;14.272;2023-04-15T08:45:52;11.88;;;5.38;;
38332;SDS011;25748;46.670;14.272;2023-04-15T08:48:19;11.27;;;5.32;;
38332;SDS011;25748;46.670;14.272;2023-04-15T08:50:46;12.38;;;5.47;;
38332;SDS011;25748;46.670;14.272;2023-04-15T08:53:13;8.45;;;4.85;;
38332;SDS011;25748;46.670;14.272;2023-04-15T08:55:44;11.23;;;4.97;;
38332;SDS011;25748;46.670;14.272;2023-04-15T08:58:11;8.52;;;4.95;;
38332;SDS011;25748;46.670;14.272;2023-04-15T09:00:37;5.35;;;4.82;;
38332;SDS011;25748;46.670;14.272;2023-04-15T09:03:07;6.88;;;5.85;;
38332;SDS011;25748;46.670;14.272;2023-04-15T09:05:33;8.30;;;5.60;;
38332;SDS011;25748;46.670;14.272;2023-04-15T09:08:00;11.38;;;6.03;;
38332;SDS011;25748;46.670;14.272;2023-04-15T09:10:27;6.05;;;4.82;;
38332;SDS011;25748;46.670;14.272;2023-04-15T09:12:53;13.52;;;5.38;;
38332;SDS011;25748;46.670;14.272;2023-04-15T09:15:20;6.35;;;4.45;;
38332;SDS011;25748;46.670;14.272;2023-04-15T09:17:46;6.28;;;4.00;;
38332;SDS011;25748;46.670;14.272;2023-04-15T09:20:13;10.38;;;5.18;;
38332;SDS011;25748;46.670;14.272;2023-04-15T09:22:40;8.30;;;4.47;;
38332;SDS011;25748;46.670;14.272;2023-04-15T09:27:57;7.65;;;3.50;;
38332;SDS011;25748;46.670;14.272;2023-04-15T09:30:28;5.97;;;3.75;;
38332;SDS011;25748;46.670;14.272;2023-04-15T09:32:57;11.15;;;4.00;;
38332;SDS011;25748;46.670;14.272;2023-04-15T09:35:26;7.65;;;4.15;;
38332;SDS011;25748;46.670;14.272;2023-04-15T09:37:52;9.60;;;3.55;;
38332;SDS011;25748;46.670;14.272;2023-04-15T09:40:32;9.55;;;3.17;;
38332;SDS011;25748;46.670;14.272;2023-04-15T09:42:58;12.57;;;3.35;;
38332;SDS011;25748;46.670;14.272;2023-04-15T09:45:24;6.43;;;3.13;;
38332;SDS011;25748;46.670;14.272;2023-04-15T09:47:50;6.57;;;3.72;;
38332;SDS011;25748;46.670;14.272;2023-04-15T09:50:17;9.77;;;3.83;;
38332;SDS011;25748;46.670;14.272;2023-04-15T09:52:44;8.38;;;3.65;;
38332;SDS011;25748;46.670;14.272;2023-04-15T09:55:10;5.65;;;3.58;;
38332;SDS011;25748;46.670;14.272;2023-04-15T09:57:37;8.38;;;4.15;;
38332;SDS011;25748;46.670;14.272;2023-04-15T10:00:05;7.75;;;3.78;;
38332;SDS011;25748;46.670;14.272;2023-04-15T10:02:33;5.45;;;3.97;;
38332;SDS011;25748;46.670;14.272;2023-04-15T10:05:00;5.75;;;3.67;;
38332;SDS011;25748;46.670;14.272;2023-04-15T10:07:27;4.97;;;3.67;;
38332;SDS011;25748;46.670;14.272;2023-04-15T10:09:52;5.13;;;3.05;;
38332;SDS011;25748;46.670;14.272;2023-04-15T10:12:20;6.95;;;3.15;;
38332;SDS011;25748;46.670;14.272;2023-04-15T10:14:47;5.47;;;3.38;;
38332;SDS011;25748;46.670;14.272;2023-04-15T10:17:17;7.45;;;4.47;;
38332;SDS011;25748;46.670;14.272;2023-04-15T10:19:49;6.03;;;3.22;;
38332;SDS011;25748;46.670;14.272;2023-04-15T10:22:18;7.95;;;3.53;;
38332;SDS011;25748;46.670;14.272;2023-04-15T10:24:44;5.35;;;2.83;;
38332;SDS011;25748;46.670;14.272;2023-04-15T10:27:11;5.03;;;2.47;;
38332;SDS011;25748;46.670;14.272;2023-04-15T10:29:38;4.50;;;2.60;;
38332;SDS011;25748;46.670;14.272;2023-04-15T10:32:04;3.92;;;2.22;;
38332;SDS011;25748;46.670;14.272;2023-04-15T10:34:29;5.13;;;2.58;;
38332;SDS011;25748;46.670;14.272;2023-04-15T10:37:02;8.63;;;2.40;;
38332;SDS011;25748;46.670;14.272;2023-04-15T10:44:55;4.82;;;2.17;;
38332;SDS011;25748;46.670;14.272;2023-04-15T10:47:21;4.25;;;2.08;;
38332;SDS011;25748;46.670;14.272;2023-04-15T10:52:17;3.08;;;1.33;;
38332;SDS011;25748;46.670;14.272;2023-04-15T10:54:47;3.33;;;1.40;;
38332;SDS011;25748;46.670;14.272;2023-04-15T10:57:14;6.00;;;1.90;;
38332;SDS011;25748;46.670;14.272;2023-04-15T11:02:42;3.03;;;1.70;;
38332;SDS011;25748;46.670;14.272;2023-04-15T11:05:19;4.18;;;2.00;;
38332;SDS011;25748;46.670;14.272;2023-04-15T11:07:54;2.70;;;1.52;;
38332;SDS011;25748;46.670;14.272;2023-04-15T11:15:39;3.63;;;1.52;;
38332;SDS011;25748;46.670;14.272;2023-04-15T11:18:14;3.83;;;2.25;;
38332;SDS011;25748;46.670;14.272;2023-04-15T11:20:45;4.18;;;1.90;;
38332;SDS011;25748;46.670;14.272;2023-04-15T11:23:16;3.45;;;2.05;;
38332;SDS011;25748;46.670;14.272;2023-04-15T11:25:43;9.02;;;2.53;;
38332;SDS011;25748;46.670;14.272;2023-04-15T11:28:10;4.70;;;2.38;;
38332;SDS011;25748;46.670;14.272;2023-04-15T11:30:37;3.75;;;1.58;;
38332;SDS011;25748;46.670;14.272;2023-04-15T11:33:07;6.05;;;2.25;;
38332;SDS011;25748;46.670;14.272;2023-04-15T11:35:34;4.05;;;2.15;;
38332;SDS011;25748;46.670;14.272;2023-04-15T11:38:03;3.72;;;2.05;;
38332;SDS011;25748;46.670;14.272;2023-04-15T11:40:30;3.30;;;1.60;;
38332;SDS011;25748;46.670;14.272;2023-04-15T11:43:06;4.25;;;2.08;;
38332;SDS011;25748;46.670;14.272;2023-04-15T11:45:37;3.28;;;1.65;;
38332;SDS011;25748;46.670;14.272;2023-04-15T11:48:12;2.38;;;1.50;;
38332;SDS011;25748;46.670;14.272;2023-04-15T11:50:38;4.60;;;1.70;;
38332;SDS011;25748;46.670;14.272;2023-04-15T11:53:05;2.92;;;1.60;;
38332;SDS011;25748;46.670;14.272;2023-04-15T11:55:45;4.65;;;1.90;;
38332;SDS011;25748;46.670;14.272;2023-04-15T11:58:15;3.05;;;1.67;;
38332;SDS011;25748;46.670;14.272;2023-04-15T12:00:51;3.03;;;1.58;;
38332;SDS011;25748;46.670;14.272;2023-04-15T12:06:08;5.40;;;1.88;;
38332;SDS011;25748;46.670;14.272;2023-04-15T12:14:07;4.10;;;1.73;;
38332;SDS011;25748;46.670;14.272;2023-04-15T12:16:40;3.72;;;1.70;;
38332;SDS011;25748;46.670;14.272;2023-04-15T12:19:09;3.58;;;1.95;;
38332;SDS011;25748;46.670;14.272;2023-04-15T12:21:37;2.88;;;1.50;;
38332;SDS011;25748;46.670;14.272;2023-04-15T12:24:05;4.22;;;1.88;;
38332;SDS011;25748;46.670;14.272;2023-04-15T12:26:37;3.38;;;1.92;;
38332;SDS011;25748;46.670;14.272;2023-04-15T12:29:10;2.53;;;1.38;;
38332;SDS011;25748;46.670;14.272;2023-04-15T12:31:45;5.55;;;1.25;;
38332;SDS011;25748;46.670;14.272;2023-04-15T12:34:12;2.35;;;1.27;;
38332;SDS011;25748;46.670;14.272;2023-04-15T12:36:38;3.45;;;1.60;;
38332;SDS011;25748;46.670;14.272;2023-04-15T12:39:04;1.92;;;1.25;;
38332;SDS011;25748;46.670;14.272;2023-04-15T12:41:33;7.05;;;1.17;;
38332;SDS011;25748;46.670;14.272;2023-04-15T12:44:03;2.00;;;0.80;;
38332;SDS011;25748;46.670;14.272;2023-04-15T12:46:29;1.35;;;1.10;;
38332;SDS011;25748;46.670;14.272;2023-04-15T12:48:55;1.67;;;1.02;;
38332;SDS011;25748;46.670;14.272;2023-04-15T12:51:21;2.60;;;1.10;;
38332;SDS011;25748;46.670;14.272;2023-04-15T12:53:46;1.98;;;1.00;;
38332;SDS011;25748;46.670;14.272;2023-04-15T12:56:13;5.03;;;1.30;;
38332;SDS011;25748;46.670;14.272;2023-04-15T12:58:40;1.77;;;0.75;;
38332;SDS011;25748;46.670;14.272;2023-04-15T13:01:07;2.15;;;0.80;;
38332;SDS011;25748;46.670;14.272;2023-04-15T13:03:32;2.63;;;1.10;;
38332;SDS011;25748;46.670;14.272;2023-04-15T13:05:58;1.75;;;0.70;;
38332;SDS011;25748;46.670;14.272;2023-04-15T13:08:26;1.23;;;0.57;;
38332;SDS011;25748;46.670;14.272;2023-04-15T13:10:52;1.50;;;0.50;;
38332;SDS011;25748;46.670;14.272;2023-04-15T13:13:17;1.83;;;0.82;;
38332;SDS011;25748;46.670;14.272;2023-04-15T13:15:43;1.58;;;0.68;;
38332;SDS011;25748;46.670;14.272;2023-04-15T13:18:10;0.93;;;0.40;;
38332;SDS011;25748;46.670;14.272;2023-04-15T13:20:35;0.68;;;0.52;;
38332;SDS011;25748;46.670;14.272;2023-04-15T13:23:01;0.70;;;0.40;;
38332;SDS011;25748;46.670;14.272;2023-04-15T13:25:27;1.73;;;0.60;;
38332;SDS011;25748;46.670;14.272;2023-04-15T13:27:52;0.03;;;0.03;;
38332;SDS011;25748;46.670;14.272;2023-04-15T13:30:18;0.28;;;0.20;;
38332;SDS011;25748;46.670;14.272;2023-04-15T13:32:44;0.20;;;0.10;;
38332;SDS011;25748;46.670;14.272;2023-04-15T13:35:10;2.50;;;0.20;;
38332;SDS011;25748;46.670;14.272;2023-04-15T13:37:35;0.98;;;0.13;;
38332;SDS011;25748;46.670;14.272;2023-04-15T13:40:01;1.00;;;0.30;;
38332;SDS011;25748;46.670;14.272;2023-04-15T13:42:27;0.55;;;0.17;;
38332;SDS011;25748;46.670;14.272;2023-04-15T13:44:53;1.75;;;0.75;;
38332;SDS011;25748;46.670;14.272;2023-04-15T13:47:19;49.03;;;17.33;;
38332;SDS011;25748;46.670;14.272;2023-04-15T13:49:45;8.75;;;4.15;;
38332;SDS011;25748;46.670;14.272;2023-04-15T13:52:11;10.57;;;4.82;;
38332;SDS011;25748;46.670;14.272;2023-04-15T13:54:38;9.20;;;4.80;;
38332;SDS011;25748;46.670;14.272;2023-04-15T13:57:05;22.65;;;8.95;;
38332;SDS011;25748;46.670;14.272;2023-04-15T13:59:33;5.72;;;2.78;;
38332;SDS011;25748;46.670;14.272;2023-04-15T14:01:59;27.00;;;13.30;;
38332;SDS011;25748;46.670;14.272;2023-04-15T14:04:25;6.65;;;2.78;;
38332;SDS011;25748;46.670;14.272;2023-04-15T14:06:50;10.85;;;3.28;;
38332;SDS011;25748;46.670;14.272;2023-04-15T14:09:16;8.68;;;2.40;;
38332;SDS011;25748;46.670;14.272;2023-04-15T14:11:42;6.22;;;2.17;;
38332;SDS011;25748;46.670;14.272;2023-04-15T14:14:08;0.93;;;0.30;;
38332;SDS011;25748;46.670;14.272;2023-04-15T14:16:34;0.85;;;0.45;;
38332;SDS011;25748;46.670;14.272;2023-04-15T14:19:00;0.70;;;0.40;;
38332;SDS011;25748;46.670;14.272;2023-04-15T14:21:26;2.47;;;0.30;;
38332;SDS011;25748;46.670;14.272;2023-04-15T14:23:56;0.28;;;0.10;;
38332;SDS011;25748;46.670;14.272;2023-04-15T14:26:22;0.20;;;0.10;;
38332;SDS011;25748;46.670;14.272;2023-04-15T14:28:48;0.22;;;0.10;;
38332;SDS011;25748;46.670;14.272;2023-04-15T14:31:13;1.85;;;0.20;;
38332;SDS011;25748;46.670;14.272;2023-04-15T14:33:39;5.28;;;0.60;;
38332;SDS011;25748;46.670;14.272;2023-04-15T14:36:05;4.85;;;1.30;;
38332;SDS011;25748;46.670;14.272;2023-04-15T14:38:35;2.80;;;0.55;;
38332;SDS011;25748;46.670;14.272;2023-04-15T14:41:03;4.43;;;1.80;;
38332;SDS011;25748;46.670;14.272;2023-04-15T14:43:29;2.45;;;1.30;;
38332;SDS011;25748;46.670;14.272;2023-04-15T14:45:54;0.47;;;0.30;;
38332;SDS011;25748;46.670;14.272;2023-04-15T14:48:20;0.30;;;0.10;;
38332;SDS011;25748;46.670;14.272;2023-04-15T14:50:46;0.30;;;0.10;;
38332;SDS011;25748;46.670;14.272;2023-04-15T14:53:11;0.30;;;0.10;;
38332;SDS011;25748;46.670;14.272;2023-04-15T14:55:37;1.02;;;0.22;;
38332;SDS011;25748;46.670;14.272;2023-04-15T14:58:03;1.10;;;0.22;;